Time;durP1;ratioP1;P1;durP2;ratioP2;P2;SDS_P1;SDS_P2;PMS_P1;PMS_P2;Temp;Humidity;BMP_temperature;BMP_pressure;BME280_temperature;BME280_humidity;BME280_pressure;Samples;Min_cycle;Max_cycle;Signal;HPM_P1;HPM_P2
2022/11/28 00:01:09;;;;;;;18.40;11.30;;;;;;;11.71;71.59;100983.00;5052422;28;20115;-44
2022/11/28 00:03:34;;;;;;;19.33;11.93;;;;;;;11.63;72.06;100976.84;5052723;28;20044;-45
2022/11/28 00:06:04;;;;;;;17.38;11.10;;;;;;;11.74;71.62;100966.53;5052974;28;20023;-44
2022/11/28 00:08:30;;;;;;;17.05;11.25;;;;;;;11.70;71.72;100976.06;5052885;28;20099;-44
2022/11/28 00:10:56;;;;;;;18.00;11.50;;;;;;;11.61;72.19;100969.84;5053146;28;20723;-46
2022/11/28 00:13:21;;;;;;;16.85;11.23;;;;;;;11.69;72.01;100960.38;5052701;28;20036;-44
2022/11/28 00:15:57;;;;;;;19.08;11.02;;;;;;;11.68;71.77;100956.00;5053338;28;20095;-44
2022/11/28 00:18:23;;;;;;;18.08;10.98;;;;;;;11.66;72.19;100953.38;5054256;28;20048;-45
2022/11/28 00:20:48;;;;;;;17.17;10.63;;;;;;;11.69;72.30;100948.19;5053763;28;20104;-44
2022/11/28 00:23:14;;;;;;;16.13;10.73;;;;;;;11.74;72.02;100948.25;5053235;28;20481;-43
2022/11/28 00:25:39;;;;;;;17.20;10.48;;;;;;;11.66;72.47;100947.25;5055731;28;20059;-45
2022/11/28 00:28:04;;;;;;;16.35;10.60;;;;;;;11.71;72.04;100950.81;5055941;28;20025;-46
2022/11/28 00:30:30;;;;;;;16.27;10.57;;;;;;;11.76;72.03;100955.25;5055779;28;20112;-45
2022/11/28 00:32:55;;;;;;;15.57;9.90;;;;;;;11.80;72.19;100964.00;5055619;28;20025;-43
2022/11/28 00:35:20;;;;;;;16.23;10.73;;;;;;;11.54;73.17;100971.50;5054887;28;20138;-45
2022/11/28 00:37:46;;;;;;;17.55;11.02;;;;;;;11.59;73.02;100967.22;5052826;28;20047;-43
2022/11/28 00:40:11;;;;;;;18.45;10.88;;;;;;;11.74;73.05;100958.72;5053027;28;20079;-43
2022/11/28 00:42:36;;;;;;;16.67;10.40;;;;;;;11.88;72.08;100956.22;5053388;28;20454;-45
2022/11/28 00:45:02;;;;;;;16.75;10.48;;;;;;;11.81;72.27;100955.31;5053745;28;20021;-44
2022/11/28 00:47:27;;;;;;;16.08;9.93;;;;;;;11.82;72.54;100957.06;5053291;28;20049;-47
2022/11/28 00:49:52;;;;;;;14.48;9.70;;;;;;;11.94;72.27;100945.84;5054023;28;20025;-43
2022/11/28 00:52:18;;;;;;;15.63;9.90;;;;;;;11.74;72.79;100948.25;5054954;28;20074;-44
2022/11/28 00:54:43;;;;;;;15.63;9.88;;;;;;;11.90;72.31;100949.25;5053889;28;20029;-43
2022/11/28 00:57:08;;;;;;;17.17;10.32;;;;;;;11.97;72.32;100945.84;5052883;28;20485;-46
2022/11/28 00:59:34;;;;;;;17.10;9.85;;;;;;;11.79;72.92;100949.19;5053536;28;20017;-44
2022/11/28 01:01:59;;;;;;;16.42;9.95;;;;;;;11.98;72.32;100939.78;5053106;28;20036;-42
2022/11/28 01:04:26;;;;;;;15.20;9.93;;;;;;;11.94;72.03;100932.78;5034830;28;20508;-42
2022/11/28 01:06:52;;;;;;;14.65;9.50;;;;;;;12.01;72.07;100939.81;5051760;28;20040;-44
2022/11/28 01:09:21;;;;;;;15.48;9.77;;;;;;;11.95;72.50;100927.56;5051322;28;20104;-43
2022/11/28 01:11:50;;;;;;;14.85;9.35;;;;;;;11.96;72.20;100931.91;5051840;28;20029;-42
2022/11/28 01:14:18;;;;;;;15.23;9.73;;;;;;;12.03;72.03;100918.03;5052186;28;20071;-44
2022/11/28 01:16:43;;;;;;;15.85;9.73;;;;;;;12.01;72.37;100921.53;5051784;28;20033;-46
2022/11/28 01:19:08;;;;;;;13.25;8.93;;;;;;;12.10;72.35;100924.19;5052340;28;20417;-41
2022/11/28 01:21:34;;;;;;;16.05;9.57;;;;;;;12.12;72.17;100920.75;5051172;28;20052;-43
2022/11/28 01:24:00;;;;;;;15.13;9.23;;;;;;;12.08;72.41;100924.16;5054040;28;20036;-43
2022/11/28 01:26:27;;;;;;;17.30;9.95;;;;;;;12.12;72.07;100925.97;5054835;28;20037;-43
2022/11/28 01:28:53;;;;;;;14.30;9.38;;;;;;;12.10;72.44;100917.22;5055242;28;20393;-43
2022/11/28 01:31:21;;;;;;;16.83;9.27;;;;;;;12.08;72.86;100915.47;5054993;28;20025;-43
2022/11/28 01:33:47;;;;;;;14.73;9.40;;;;;;;12.17;72.50;100918.16;5053440;28;20043;-44
2022/11/28 01:36:13;;;;;;;17.83;9.68;;;;;;;12.12;72.51;100919.88;5053147;28;20485;-44
2022/11/28 01:38:39;;;;;;;16.58;9.82;;;;;;;12.12;72.43;100912.91;5052405;28;20079;-44
2022/11/28 01:41:06;;;;;;;14.85;9.45;;;;;;;12.20;72.56;100910.31;5050813;28;20389;-46
2022/11/28 01:43:32;;;;;;;15.50;9.00;;;;;;;12.30;72.21;100912.16;5052406;28;20084;-43
2022/11/28 01:45:57;;;;;;;15.75;8.85;;;;;;;12.31;71.96;100915.66;5052001;28;20025;-45
2022/11/28 01:48:31;;;;;;;14.63;9.30;;;;;;;12.31;72.33;100924.38;5051766;28;20033;-43
2022/11/28 01:51:00;;;;;;;15.00;9.23;;;;;;;12.27;72.62;100914.72;5051160;28;20032;-40
2022/11/28 01:53:29;;;;;;;15.90;9.23;;;;;;;12.34;72.46;100910.44;5052213;28;20044;-43
2022/11/28 01:56:00;;;;;;;13.18;8.50;;;;;;;12.30;72.52;100908.66;5052114;28;20020;-48
2022/11/28 01:58:26;;;;;;;15.65;9.43;;;;;;;12.35;72.42;100902.59;5053213;28;20493;-44
2022/11/28 02:00:52;;;;;;;16.58;9.57;;;;;;;12.37;72.56;100900.00;5052469;28;20028;-44
2022/11/28 02:03:26;;;;;;;16.25;9.48;;;;;;;12.34;72.71;100905.19;5054628;28;20035;-44
2022/11/28 02:05:52;;;;;;;13.73;8.93;;;;;;;12.32;73.03;100896.50;5055313;28;20044;-45
2022/11/28 02:08:18;;;;;;;15.30;9.38;;;;;;;12.24;73.36;100906.88;5055583;28;20112;-45
2022/11/28 02:11:07;;;;;;;15.60;9.43;;;;;;;12.12;74.06;100907.69;5055351;28;20173;-44
2022/11/28 02:13:54;;;;;;;15.07;9.02;;;;;;;12.46;72.97;100894.81;5055649;28;20036;-43
2022/11/28 02:16:40;;;;;;;14.82;9.30;;;;;;;12.44;72.68;100891.34;5055443;28;20048;-43
2022/11/28 02:19:18;;;;;;;14.70;9.27;;;;;;;12.51;72.90;100898.31;5055935;28;20060;-46
2022/11/28 02:21:49;;;;;;;16.27;9.65;;;;;;;12.47;72.99;100899.19;5054743;28;20029;-48
2022/11/28 02:24:33;;;;;;;17.08;10.10;;;;;;;12.35;73.57;100893.88;5054713;28;20452;-45
2022/11/28 02:27:21;;;;;;;18.42;10.07;;;;;;;12.34;73.69;100900.84;5055045;28;20035;-43
2022/11/28 02:30:01;;;;;;;16.63;9.98;;;;;;;12.46;73.47;100900.91;5054205;28;20029;-46
2022/11/28 02:32:32;;;;;;;18.05;10.13;;;;;;;12.59;72.82;100896.63;5054594;28;20036;-45
2022/11/28 02:35:16;;;;;;;17.85;10.15;;;;;;;12.40;73.44;100905.25;5054449;28;20071;-44
2022/11/28 02:38:05;;;;;;;17.93;10.50;;;;;;;12.58;73.34;100903.63;5055398;28;20103;-44
2022/11/28 02:40:44;;;;;;;17.30;10.30;;;;;;;12.66;72.88;100898.44;5056175;28;20347;-41
2022/11/28 02:43:26;;;;;;;15.60;10.05;;;;;;;12.66;72.74;100889.72;5055729;28;20397;-44
2022/11/28 02:46:01;;;;;;;16.42;10.40;;;;;;;12.67;72.81;100894.06;5057805;28;20027;-43
2022/11/28 02:48:37;;;;;;;17.25;10.57;;;;;;;12.66;72.73;100893.19;5057286;28;20029;-43
2022/11/28 02:51:11;;;;;;;16.23;10.15;;;;;;;12.69;72.90;100889.69;5056324;28;20059;-44
2022/11/28 02:53:36;;;;;;;19.10;10.90;;;;;;;12.63;73.16;100887.94;5058735;28;20020;-44
2022/11/28 02:56:02;;;;;;;17.42;10.98;;;;;;;12.49;73.62;100892.25;5058516;28;20103;-43
2022/11/28 02:58:27;;;;;;;19.52;11.18;;;;;;;12.59;73.64;100888.78;5057824;28;20429;-43
2022/11/28 03:00:53;;;;;;;19.17;11.20;;;;;;;12.69;73.12;100890.59;5058093;28;20074;-43
2022/11/28 03:06:04;;;;;;;19.50;11.10;;;;;;;12.74;73.32;100885.41;5074021;22;20315;-43
2022/11/28 03:09:02;;;;;;;20.67;11.63;;;;;;;12.62;73.59;100896.69;5052447;28;20473;-41
2022/11/28 03:11:40;;;;;;;21.00;11.18;;;;;;;12.73;73.34;100891.50;5052222;28;20053;-44
2022/11/28 03:14:15;;;;;;;18.20;10.80;;;;;;;12.60;73.57;100887.94;5052072;28;20029;-42
2022/11/28 03:17:17;;;;;;;18.95;11.25;;;;;;;12.64;73.47;100892.31;5052551;28;20051;-42
2022/11/28 03:20:38;;;;;;;19.17;11.55;;;;;;;12.73;73.70;100894.09;5052188;28;20421;-42
2022/11/28 03:23:19;;;;;;;19.75;11.57;;;;;;;12.47;74.24;100889.59;5009906;28;20034;-42
2022/11/28 03:25:47;;;;;;;18.63;10.95;;;;;;;12.47;74.46;100887.00;5009665;28;20026;-46
2022/11/28 03:28:33;;;;;;;18.48;11.13;;;;;;;12.65;73.79;100886.22;5034221;28;20063;-45
2022/11/28 03:31:15;;;;;;;17.20;10.70;;;;;;;12.61;73.76;100879.22;5053212;28;20075;-41
2022/11/28 03:33:46;;;;;;;17.38;10.77;;;;;;;12.79;73.36;100888.91;5053520;28;20029;-42
2022/11/28 03:36:20;;;;;;;17.45;10.43;;;;;;;12.82;72.95;100891.53;5052103;28;20108;-43
2022/11/28 03:38:53;;;;;;;17.73;9.85;;;;;;;12.80;73.07;100902.00;5051946;28;20083;-42
2022/11/28 03:41:31;;;;;;;15.63;9.77;;;;;;;12.80;73.24;100891.53;5050314;28;20035;-42
2022/11/28 03:43:58;;;;;;;19.35;10.20;;;;;;;12.69;73.68;100898.44;5051950;28;20052;-42
2022/11/28 03:46:30;;;;;;;15.82;9.85;;;;;;;12.63;73.69;100894.91;5051661;28;20055;-45
2022/11/28 03:48:58;;;;;;;17.55;10.25;;;;;;;12.61;73.72;100892.31;5051653;28;20488;-41
2022/11/28 03:51:31;;;;;;;17.58;10.38;;;;;;;12.61;73.60;100889.69;5051875;28;20029;-42
2022/11/28 03:54:10;;;;;;;17.03;9.73;;;;;;;12.72;73.26;100885.38;5052138;28;20067;-43
2022/11/28 03:56:50;;;;;;;15.98;9.02;;;;;;;12.82;72.97;100887.16;5052523;28;20398;-42
2022/11/28 03:59:25;;;;;;;16.58;9.68;;;;;;;12.57;73.81;100883.56;5052554;28;20055;-43
2022/11/28 04:02:07;;;;;;;16.25;9.73;;;;;;;12.62;73.26;100896.69;5052611;28;20025;-44
2022/11/28 04:04:41;;;;;;;15.32;9.60;;;;;;;12.58;73.51;100887.03;5055739;28;20028;-46
2022/11/28 04:07:19;;;;;;;;;;;;;;;12.70;73.31;100891.47;5055731;28;20027;-43
2022/11/28 04:09:49;;;;;;;15.05;9.57;;;;;;;12.47;73.74;100896.56;5051855;28;19913;-43
2022/11/28 04:12:30;;;;;;;15.25;10.07;;;;;;;12.54;73.70;100895.75;5050954;28;20344;-46
2022/11/28 04:15:07;;;;;;;21.70;10.45;;;;;;;12.43;73.77;100898.31;5051307;28;20029;-43
2022/11/28 04:17:43;;;;;;;16.92;10.43;;;;;;;12.49;73.98;100900.09;5051418;28;20029;-42
2022/11/28 04:20:17;;;;;;;17.95;11.07;;;;;;;12.36;74.38;100890.41;5051405;28;20220;-42
2022/11/28 04:22:47;;;;;;;18.52;10.75;;;;;;;12.57;73.66;100895.75;5051211;28;20044;-41
2022/11/28 04:25:18;;;;;;;18.73;10.90;;;;;;;12.45;73.48;100891.31;5050199;28;20024;-46
2022/11/28 04:27:48;;;;;;;20.90;11.70;;;;;;;12.60;73.55;100898.41;5051436;28;20032;-42
2022/11/28 04:30:14;;;;;;;20.27;11.15;;;;;;;12.42;74.01;100896.56;5050800;28;20032;-45
2022/11/28 04:32:47;;;;;;;22.15;11.57;;;;;;;12.46;73.96;100902.66;5050926;28;20039;-42
2022/11/28 04:35:21;;;;;;;17.65;10.85;;;;;;;12.62;73.60;100896.69;5051878;28;20035;-46
2022/11/28 04:37:48;;;;;;;19.10;10.77;;;;;;;12.55;73.58;100906.22;5051874;28;20016;-45
2022/11/28 04:40:14;;;;;;;19.85;11.20;;;;;;;12.74;73.22;100908.94;5052121;28;20084;-44
2022/11/28 04:42:46;;;;;;;18.45;10.80;;;;;;;12.83;72.64;100915.06;5051655;28;20067;-42
2022/11/28 04:45:34;;;;;;;20.52;11.10;;;;;;;12.67;73.12;100921.09;5058152;28;20021;-44
2022/11/28 04:48:00;;;;;;;16.73;10.40;;;;;;;12.77;72.84;100919.41;5064225;28;20172;-43
2022/11/28 04:50:36;;;;;;;16.33;10.48;;;;;;;12.84;72.67;100921.19;5065773;28;20033;-45
2022/11/28 04:53:08;;;;;;;18.75;10.65;;;;;;;12.73;72.87;100921.16;5060921;28;20495;-43
2022/11/28 04:55:51;;;;;;;19.20;10.55;;;;;;;12.76;72.78;100910.69;5064466;28;20029;-46
2022/11/28 04:58:23;;;;;;;19.75;11.25;;;;;;;12.75;72.78;100918.50;5062487;28;20028;-40
2022/11/28 05:00:51;;;;;;;20.33;11.07;;;;;;;12.81;72.92;100924.66;5064578;28;20029;-40
2022/11/28 05:03:17;;;;;;;21.42;11.20;;;;;;;12.75;72.98;100919.38;5059903;28;20104;-43
2022/11/28 05:05:48;;;;;;;18.23;10.48;;;;;;;12.82;72.78;100920.28;5058701;28;20058;-42
2022/11/28 05:08:14;;;;;;;19.75;11.48;;;;;;;12.69;72.81;100924.59;5056900;28;20025;-40
2022/11/28 05:10:40;;;;;;;20.92;11.48;;;;;;;12.73;72.72;100926.38;5050801;28;20669;-44
2022/11/28 05:13:06;;;;;;;19.73;11.05;;;;;;;12.74;73.15;100927.25;5051248;28;20028;-42
2022/11/28 05:15:31;;;;;;;17.90;11.27;;;;;;;12.84;72.53;100927.31;5050656;28;20362;-42
2022/11/28 05:17:57;;;;;;;20.15;11.25;;;;;;;12.82;72.42;100928.16;5050004;28;20477;-44
2022/11/28 05:20:22;;;;;;;22.83;11.80;;;;;;;12.79;72.93;100930.75;5049671;28;20444;-42
2022/11/28 05:22:47;;;;;;;21.15;11.80;;;;;;;12.77;72.64;100935.09;5049924;28;20424;-45
2022/11/28 05:25:13;;;;;;;20.92;11.45;;;;;;;12.79;72.96;100936.00;5050153;28;20481;-45
2022/11/28 05:27:38;;;;;;;23.65;12.70;;;;;;;12.77;72.98;100938.59;5050304;28;20629;-41
2022/11/28 05:30:05;;;;;;;23.00;12.98;;;;;;;12.76;72.90;100941.19;5049699;28;20048;-44
2022/11/28 05:32:30;;;;;;;24.80;12.55;;;;;;;12.82;72.93;100938.59;5049669;28;20086;-43
2022/11/28 05:34:56;;;;;;;23.92;12.88;;;;;;;12.85;72.82;100941.25;5049801;28;20028;-46
2022/11/28 05:37:22;;;;;;;29.65;14.07;;;;;;;12.87;72.54;100942.13;5049672;28;20040;-41
2022/11/28 05:39:47;;;;;;;25.33;13.65;;;;;;;12.83;72.60;100942.97;5049801;28;20024;-44
2022/11/28 05:42:12;;;;;;;29.83;14.02;;;;;;;12.79;73.06;100949.06;5049369;28;20020;-43
2022/11/28 05:44:38;;;;;;;24.63;12.93;;;;;;;12.65;73.31;100946.38;5049553;28;20455;-44
2022/11/28 05:47:03;;;;;;;31.92;13.85;;;;;;;12.79;72.81;100954.31;5050099;28;20131;-44
2022/11/28 05:49:28;;;;;;;27.45;13.82;;;;;;;12.71;73.09;100946.41;5049669;28;20527;-41
2022/11/28 05:51:54;;;;;;;27.95;13.60;;;;;;;12.82;72.88;100946.47;5049532;28;20381;-44
2022/11/28 05:54:19;;;;;;;32.08;13.93;;;;;;;12.81;72.90;100949.94;5050206;28;20473;-43
2022/11/28 05:56:44;;;;;;;27.58;13.98;;;;;;;12.84;72.76;100952.59;5051302;28;20036;-44
2022/11/28 05:59:12;;;;;;;30.58;14.55;;;;;;;12.74;73.02;100961.25;5052448;28;20025;-43
2022/11/28 06:01:37;;;;;;;32.35;14.27;;;;;;;12.78;72.93;100960.41;5050128;28;20029;-44
2022/11/28 06:04:03;;;;;;;31.42;14.57;;;;;;;12.78;72.95;100963.00;5049779;28;20031;-45
2022/11/28 06:06:33;;;;;;;32.83;14.05;;;;;;;12.71;73.27;100962.09;5049333;28;20040;-42
2022/11/28 06:08:59;;;;;;;31.05;14.27;;;;;;;12.80;72.98;100956.94;5049359;28;20040;-42
2022/11/28 06:11:26;;;;;;;31.95;14.48;;;;;;;12.84;72.92;100958.69;5049206;28;20028;-41
2022/11/28 06:13:51;;;;;;;30.30;13.32;;;;;;;12.87;72.67;100963.06;5049317;28;20484;-42
2022/11/28 06:16:19;;;;;;;29.88;14.05;;;;;;;12.86;72.69;100961.31;5049294;28;20082;-44
2022/11/28 06:18:44;;;;;;;30.75;14.27;;;;;;;12.83;72.85;100958.69;5049778;28;20470;-43
2022/11/28 06:21:11;;;;;;;30.55;13.70;;;;;;;12.87;72.56;100950.84;5049971;28;20032;-43
2022/11/28 06:23:37;;;;;;;35.08;13.90;;;;;;;12.81;72.92;100953.44;5048940;28;20140;-42
2022/11/28 06:26:08;;;;;;;32.08;14.32;;;;;;;12.91;72.57;100954.38;5049393;28;20490;-42
2022/11/28 06:28:34;;;;;;;32.70;14.40;;;;;;;12.83;73.07;100958.69;5049285;28;20029;-42
2022/11/28 06:31:00;;;;;;;35.70;14.40;;;;;;;12.84;72.94;100966.53;5048831;28;20052;-44
2022/11/28 06:33:25;;;;;;;36.78;15.02;;;;;;;12.84;72.91;100961.31;5049199;28;20477;-43
2022/11/28 06:35:50;;;;;;;32.55;13.95;;;;;;;12.93;72.61;100965.69;5049009;28;20021;-40
2022/11/28 06:38:16;;;;;;;32.88;14.55;;;;;;;12.83;72.84;100967.41;5049050;28;20067;-46
2022/11/28 06:40:41;;;;;;;30.92;14.63;;;;;;;12.85;72.86;100967.41;5048928;28;20037;-44
2022/11/28 06:43:06;;;;;;;37.75;16.02;;;;;;;12.84;72.96;100973.50;5049297;28;20025;-42
2022/11/28 06:45:33;;;;;;;38.47;16.17;;;;;;;12.88;72.87;100975.28;5050141;28;20109;-43
2022/11/28 06:47:59;;;;;;;44.22;16.52;;;;;;;12.76;73.17;100976.06;5052449;28;20029;-44
2022/11/28 06:50:24;;;;;;;39.60;15.65;;;;;;;12.75;73.39;100974.31;5053008;28;20401;-41
2022/11/28 06:52:50;;;;;;;45.97;17.23;;;;;;;12.77;73.32;100975.22;5053478;28;20392;-44
2022/11/28 06:55:16;;;;;;;45.03;17.30;;;;;;;12.87;73.00;100968.28;5053613;28;20243;-47
2022/11/28 06:57:42;;;;;;;50.33;17.88;;;;;;;12.74;73.74;100975.22;5053362;28;20055;-45
2022/11/28 07:00:07;;;;;;;55.50;18.58;;;;;;;12.54;74.19;100977.69;5053265;28;20465;-42
2022/11/28 07:02:33;;;;;;;64.90;19.23;;;;;;;12.51;74.67;100982.88;5052765;28;20056;-44
2022/11/28 07:04:58;;;;;;;59.35;18.17;;;;;;;12.75;73.53;100979.56;5052874;28;20048;-43
2022/11/28 07:07:23;;;;;;;66.57;18.48;;;;;;;12.68;74.16;100977.78;5053194;28;20531;-43
2022/11/28 07:09:50;;;;;;;58.33;18.67;;;;;;;12.57;74.80;100989.91;5053564;28;20032;-42
2022/11/28 07:12:16;;;;;;;55.45;18.65;;;;;;;12.52;75.05;100986.38;5053215;28;20029;-43
2022/11/28 07:14:41;;;;;;;68.28;18.85;;;;;;;12.67;74.26;100994.34;5052524;28;20119;-44
2022/11/28 07:17:06;;;;;;;69.35;19.30;;;;;;;12.45;74.85;100993.31;5052352;28;20422;-44
2022/11/28 07:19:32;;;;;;;54.50;17.85;;;;;;;12.76;74.11;101003.97;5052213;28;20068;-45
2022/11/28 07:21:57;;;;;;;56.10;18.35;;;;;;;12.83;73.96;100995.31;5051571;28;20016;-47
2022/11/28 07:24:22;;;;;;;67.38;18.85;;;;;;;12.53;74.86;100989.00;5052102;28;20025;-43
2022/11/28 07:26:48;;;;;;;68.95;19.48;;;;;;;12.47;75.31;101002.03;5052316;28;20049;-42
2022/11/28 07:29:15;;;;;;;73.50;18.85;;;;;;;12.66;74.30;100999.56;5051987;28;20024;-42
2022/11/28 07:31:41;;;;;;;64.43;18.50;;;;;;;12.39;75.35;101010.69;5051586;28;20078;-44
2022/11/28 07:34:08;;;;;;;53.80;18.33;;;;;;;12.67;75.00;101007.44;5052227;28;20036;-45
2022/11/28 07:36:33;;;;;;;59.03;18.20;;;;;;;12.75;74.52;101015.31;5052394;28;20131;-41
2022/11/28 07:39:01;;;;;;;56.15;17.85;;;;;;;12.91;74.14;101017.16;5052145;28;20538;-44
2022/11/28 07:41:27;;;;;;;52.15;17.75;;;;;;;12.96;73.76;101015.44;5051906;28;20493;-43
2022/11/28 07:44:03;;;;;;;51.58;17.77;;;;;;;13.00;73.66;101019.81;5053065;28;20029;-43
2022/11/28 07:46:30;;;;;;;74.50;18.60;;;;;;;12.79;73.82;101019.72;5053374;28;20013;-41
2022/11/28 07:48:56;;;;;;;70.05;18.60;;;;;;;12.70;74.52;101019.63;5057225;28;20040;-42
2022/11/28 07:51:24;;;;;;;75.32;18.95;;;;;;;12.74;74.94;101010.97;5055779;28;20025;-43
2022/11/28 07:53:50;;;;;;;61.47;18.05;;;;;;;12.84;74.58;101015.38;5053243;28;20040;-45
2022/11/28 07:56:21;;;;;;;58.15;18.50;;;;;;;12.83;74.62;101006.66;5054634;28;20033;-43
2022/11/28 07:58:47;;;;;;;73.30;19.38;;;;;;;12.70;74.65;101010.03;5053950;28;20025;-41
2022/11/28 08:01:15;;;;;;;65.18;18.20;;;;;;;12.96;74.26;101023.31;5051546;28;20455;-43
2022/11/28 08:03:41;;;;;;;67.30;18.13;;;;;;;13.00;74.11;101025.94;5051526;28;20028;-42
2022/11/28 08:06:07;;;;;;;64.43;17.92;;;;;;;13.04;74.23;101032.09;5051943;28;20025;-43
2022/11/28 08:08:33;;;;;;;65.35;17.95;;;;;;;13.00;74.09;101038.16;5051150;28;20033;-45
2022/11/28 08:11:00;;;;;;;75.97;19.02;;;;;;;12.94;74.32;101040.72;5050767;28;20540;-45
2022/11/28 08:13:26;;;;;;;73.03;19.20;;;;;;;13.11;73.84;101043.47;5051105;28;20029;-45
2022/11/28 08:15:52;;;;;;;78.82;18.95;;;;;;;13.08;73.87;101044.31;5049503;28;20485;-43
2022/11/28 08:18:17;;;;;;;81.88;20.30;;;;;;;13.08;73.96;101049.56;5051508;28;20102;-46
2022/11/28 08:20:43;;;;;;;69.53;19.10;;;;;;;13.14;74.01;101048.75;5050680;28;20017;-45
2022/11/28 08:23:08;;;;;;;67.80;20.23;;;;;;;13.12;74.02;101048.72;5051268;28;20036;-42
2022/11/28 08:25:33;;;;;;;67.75;19.05;;;;;;;13.03;74.66;101043.41;5050730;28;20070;-42
2022/11/28 08:27:59;;;;;;;87.20;20.33;;;;;;;13.07;74.21;101041.69;5050668;28;20035;-42
2022/11/28 08:30:25;;;;;;;88.30;19.77;;;;;;;12.98;74.77;101039.91;5049120;28;20032;-44
2022/11/28 08:32:51;;;;;;;76.75;20.20;;;;;;;12.97;74.93;101048.63;5050577;28;20040;-42
2022/11/28 08:35:16;;;;;;;66.80;18.83;;;;;;;13.03;74.92;101040.81;5050894;28;20024;-42
2022/11/28 08:37:42;;;;;;;72.38;19.33;;;;;;;13.12;74.67;101037.34;5050982;28;20029;-43
2022/11/28 08:40:07;;;;;;;74.22;19.27;;;;;;;13.04;75.41;101037.31;5050813;28;20438;-43
2022/11/28 08:42:32;;;;;;;77.28;20.15;;;;;;;13.01;74.82;101035.53;5051807;28;20053;-42
2022/11/28 08:44:58;;;;;;;74.47;20.10;;;;;;;13.25;74.65;101028.72;5052792;28;20029;-43
2022/11/28 08:47:23;;;;;;;72.07;19.67;;;;;;;13.17;74.64;101027.84;5051560;28;20032;-42
2022/11/28 08:49:48;;;;;;;72.20;19.50;;;;;;;13.25;74.78;101029.59;5051945;28;20032;-42
2022/11/28 08:52:14;;;;;;;74.05;19.25;;;;;;;13.15;74.87;101032.16;5054078;28;20091;-47
2022/11/28 08:54:40;;;;;;;70.90;19.08;;;;;;;13.20;74.96;101038.31;5054329;28;20024;-43
2022/11/28 08:57:05;;;;;;;73.45;19.38;;;;;;;13.30;74.25;101040.09;5052034;28;20021;-42
2022/11/28 08:59:30;;;;;;;73.68;19.70;;;;;;;13.46;74.14;101049.78;5051606;28;20025;-43
2022/11/28 09:01:56;;;;;;;62.22;18.25;;;;;;;13.57;74.18;101050.69;5050463;28;20028;-42
2022/11/28 09:04:22;;;;;;;71.50;19.75;;;;;;;13.49;74.33;101048.91;5072902;22;20041;-38
2022/11/28 09:06:48;;;;;;;69.68;19.02;;;;;;;13.57;74.14;101053.31;5051698;28;20037;-38
2022/11/28 09:09:13;;;;;;;67.53;18.73;;;;;;;13.26;74.76;101048.81;5050495;28;20510;-40
2022/11/28 09:11:39;;;;;;;72.78;19.90;;;;;;;13.17;75.33;101043.53;5050168;28;20028;-38
2022/11/28 09:14:05;;;;;;;66.97;18.73;;;;;;;13.24;75.03;101047.91;5050586;28;20032;-39
2022/11/28 09:16:30;;;;;;;67.05;19.02;;;;;;;13.09;75.11;101047.81;5050492;28;20029;-41
2022/11/28 09:18:58;;;;;;;66.38;18.25;;;;;;;13.38;74.92;101048.88;5050344;28;20017;-39
2022/11/28 09:21:24;;;;;;;60.55;17.77;;;;;;;13.33;75.07;101050.59;5050175;28;20021;-39
2022/11/28 09:23:53;;;;;;;57.95;17.45;;;;;;;13.63;74.45;101047.22;5050083;28;20029;-38
2022/11/28 09:26:20;;;;;;;55.10;17.25;;;;;;;13.78;73.94;101042.91;5050094;28;20052;-41
2022/11/28 09:28:46;;;;;;;53.88;17.08;;;;;;;13.77;74.13;101048.16;5050365;28;20420;-41
2022/11/28 09:31:14;;;;;;;55.63;16.77;;;;;;;13.53;74.38;101051.56;5050122;28;20025;-39
2022/11/28 09:33:40;;;;;;;54.03;16.90;;;;;;;13.53;73.96;101056.81;5050201;28;20017;-39
2022/11/28 09:36:07;;;;;;;50.00;16.30;;;;;;;13.52;74.50;101055.06;5050004;28;20028;-39
2022/11/28 09:38:33;;;;;;;44.95;15.43;;;;;;;13.51;74.61;101057.66;5050575;28;20572;-39
2022/11/28 09:41:00;;;;;;;46.65;16.15;;;;;;;13.52;74.50;101057.66;5049899;28;20085;-37
2022/11/28 09:43:34;;;;;;;41.88;15.27;;;;;;;13.66;74.31;101058.59;5051038;28;20052;-39
2022/11/28 09:46:04;;;;;;;40.47;14.48;;;;;;;13.48;74.63;101057.66;5050369;28;20388;-39
2022/11/28 09:48:38;;;;;;;42.13;14.98;;;;;;;13.70;74.42;101064.72;5050191;28;20032;-40
2022/11/28 09:51:19;;;;;;;44.05;15.10;;;;;;;13.67;74.42;101062.06;5049951;28;20453;-40
2022/11/28 09:53:57;;;;;;;39.28;14.77;;;;;;;13.54;74.58;101068.16;5050072;28;20539;-40
2022/11/28 09:56:22;;;;;;;39.30;15.27;;;;;;;13.49;74.67;101073.34;5050114;28;20021;-41
2022/11/28 09:58:52;;;;;;;38.08;14.93;;;;;;;13.70;74.43;101073.47;5050307;28;20547;-39
2022/11/28 10:01:29;;;;;;;38.58;14.75;;;;;;;13.50;74.93;101076.84;5049887;28;20078;-39
2022/11/28 10:04:30;;;;;;;37.80;15.20;;;;;;;13.61;74.70;101069.91;5051364;28;20021;-39
2022/11/28 10:07:05;;;;;;;39.80;14.77;;;;;;;13.62;74.64;101071.66;5026690;28;20572;-41
2022/11/28 10:09:42;;;;;;;33.35;13.85;;;;;;;14.00;73.55;101074.44;5049994;28;20543;-40
2022/11/28 10:12:24;;;;;;;36.92;14.45;;;;;;;14.22;73.34;101076.22;5049614;28;20568;-40
2022/11/28 10:15:11;;;;;;;34.90;13.93;;;;;;;14.23;73.00;101077.97;5049669;28;20033;-40
2022/11/28 10:18:10;;;;;;;32.47;13.52;;;;;;;13.98;73.14;101069.16;5049996;28;20027;-39
2022/11/28 10:20:43;;;;;;;26.40;12.88;;;;;;;13.76;73.78;101080.47;5049554;28;20047;-39
2022/11/28 10:23:25;;;;;;;29.42;12.88;;;;;;;13.48;74.27;101082.06;5052781;28;20064;-39
2022/11/28 10:26:05;;;;;;;31.00;12.75;;;;;;;13.48;74.72;101071.59;5053440;28;20060;-37
2022/11/28 10:28:35;;;;;;;33.08;12.98;;;;;;;13.50;74.33;101080.34;5053753;28;20029;-39
2022/11/28 10:31:09;;;;;;;28.95;12.95;;;;;;;13.89;73.54;101086.63;5053592;28;20549;-39
2022/11/28 10:33:54;;;;;;;30.90;13.60;;;;;;;13.69;74.16;101087.44;5053563;28;20529;-42
2022/11/28 10:36:26;;;;;;;31.05;13.18;;;;;;;13.52;74.16;101085.59;5053889;28;20028;-40
2022/11/28 10:38:52;;;;;;;31.10;13.77;;;;;;;13.84;73.60;101077.88;5054027;28;20113;-40
2022/11/28 10:41:27;;;;;;;30.27;14.13;;;;;;;13.63;73.99;101079.53;5054148;28;20028;-39
2022/11/28 10:44:27;;;;;;;28.55;13.68;;;;;;;13.89;73.65;101084.88;5056284;28;20083;-38
2022/11/28 10:47:06;;;;;;;30.30;13.73;;;;;;;14.07;73.51;101087.56;5034424;28;20068;-39
2022/11/28 10:50:05;;;;;;;32.22;13.88;;;;;;;13.98;73.94;101086.63;5054224;28;20028;-39
2022/11/28 10:52:50;;;;;;;29.45;13.85;;;;;;;13.80;73.67;101090.09;5044964;28;20474;-39
2022/11/28 10:55:28;;;;;;;30.23;13.50;;;;;;;14.48;72.67;101092.03;5052729;28;20020;-42
2022/11/28 10:57:59;;;;;;;28.20;13.10;;;;;;;14.53;72.17;101093.78;5052997;28;20029;-39
2022/11/28 11:00:25;;;;;;;27.75;13.32;;;;;;;14.51;72.06;101092.03;5052719;28;20021;-40
2022/11/28 11:02:56;;;;;;;28.50;14.07;;;;;;;14.68;71.68;101085.03;5052560;28;20031;-39
2022/11/28 11:05:25;;;;;;;28.45;13.55;;;;;;;14.80;71.55;101084.16;5052681;28;20501;-39
2022/11/28 11:08:20;;;;;;;27.13;13.90;;;;;;;14.93;70.84;101078.03;5052308;28;20492;-40
2022/11/28 11:11:02;;;;;;;29.05;14.18;;;;;;;14.89;70.39;101089.38;5051974;28;20017;-42
2022/11/28 11:13:30;;;;;;;31.27;14.15;;;;;;;14.44;71.84;101090.28;5052684;28;20029;-39
2022/11/28 11:16:04;;;;;;;28.77;14.40;;;;;;;14.63;71.33;101102.53;5052405;28;20017;-40
2022/11/28 11:18:36;;;;;;;30.08;14.73;;;;;;;14.97;70.88;101096.41;5052861;28;20079;-42
2022/11/28 11:21:14;;;;;;;31.42;14.40;;;;;;;14.94;70.46;101095.53;5052309;28;20021;-39
2022/11/28 11:23:40;;;;;;;32.80;14.32;;;;;;;14.87;70.70;101096.41;5052334;28;20035;-41
2022/11/28 11:26:10;;;;;;;35.42;15.15;;;;;;;14.65;70.93;101095.53;5053451;28;20471;-40
2022/11/28 11:28:41;;;;;;;32.63;14.93;;;;;;;14.88;70.47;101099.00;5052846;28;20029;-36